Time;durP1;ratioP1;P1;durP2;ratioP2;P2;SDS_P1;SDS_P2;PMS_P1;PMS_P2;Temp;Humidity;BMP_temperature;BMP_pressure;BME280_temperature;BME280_humidity;BME280_pressure;Samples;Min_cycle;Max_cycle;Signal;HPM_P1;HPM_P2
2023/09/12 07:55:46;;;;;;;36.17;33.47;;;31.50;99.90;;;;;;5154078;24;20053;-92
2023/09/12 07:58:21;;;;;;;36.58;33.85;;;31.60;99.90;;;;;;4865621;29;20036;-91
2023/09/12 08:00:47;;;;;;;36.75;34.25;;;32.10;99.90;;;;;;4865269;29;20064;-92
2023/09/12 08:03:15;;;;;;;37.40;34.65;;;32.60;99.90;;;;;;4850077;29;20038;-91
2023/09/12 08:05:42;;;;;;;37.53;34.42;;;32.50;99.90;;;;;;4851081;29;20046;-91
2023/09/12 08:08:08;;;;;;;35.85;33.35;;;32.30;99.90;;;;;;4816305;29;20042;-92
2023/09/12 08:10:36;;;;;;;36.55;33.92;;;32.50;99.90;;;;;;4818815;29;20109;-93
2023/09/12 08:13:03;;;;;;;36.30;33.72;;;32.60;99.90;;;;;;4816558;29;20026;-92
2023/09/12 08:15:31;;;;;;;37.53;34.58;;;33.00;99.90;;;;;;4822191;29;20053;-93
2023/09/12 08:17:58;;;;;;;36.85;34.10;;;32.90;99.90;;;;;;4828528;29;20094;-92
2023/09/12 08:20:43;;;;;;;38.05;35.17;;;32.20;99.90;;;;;;4822739;29;20049;-92
2023/09/12 08:23:23;;;;;;;37.50;34.83;;;32.20;99.90;;;;;;4816289;29;20105;-91
2023/09/12 08:25:49;;;;;;;37.55;35.05;;;32.80;99.90;;;;;;4814450;29;20599;-92
2023/09/12 08:28:16;;;;;;;38.50;35.40;;;33.00;99.90;;;;;;4814428;29;20050;-91
2023/09/12 08:30:54;;;;;;;36.17;33.72;;;32.40;99.90;;;;;;4796812;29;20176;-91
2023/09/12 08:33:23;;;;;;;36.53;33.85;;;32.90;99.90;;;;;;4795837;29;20119;-91
2023/09/12 08:35:50;;;;;;;36.25;33.65;;;33.00;99.90;;;;;;4795523;29;20500;-93
2023/09/12 08:38:17;;;;;;;36.85;34.25;;;32.50;99.90;;;;;;4825265;29;20522;-91
2023/09/12 08:40:51;;;;;;;36.35;33.95;;;32.50;99.90;;;;;;4829293;29;20038;-91
2023/09/12 08:43:20;;;;;;;36.30;33.50;;;32.60;99.90;;;;;;4844649;29;20087;-91
2023/09/12 08:45:47;;;;;;;35.58;33.10;;;32.80;99.90;;;;;;4829053;29;20078;-92
2023/09/12 08:48:15;;;;;;;36.47;33.92;;;32.70;99.90;;;;;;4845834;29;20124;-92
2023/09/12 08:50:51;;;;;;;37.83;35.17;;;32.60;99.90;;;;;;4829650;29;20105;-93
2023/09/12 08:53:22;;;;;;;38.50;35.65;;;32.50;99.90;;;;;;4844357;29;20077;-94
2023/09/12 08:55:49;;;;;;;37.53;34.92;;;32.70;99.90;;;;;;4829086;29;20050;-91
2023/09/12 08:58:23;;;;;;;38.13;35.35;;;32.20;99.90;;;;;;4828798;29;20086;-92
2023/09/12 09:00:54;;;;;;;39.10;36.30;;;31.40;99.90;;;;;;4829075;29;20040;-93
2023/09/12 09:03:23;;;;;;;38.75;36.10;;;31.30;99.90;;;;;;4844131;29;20041;-91
2023/09/12 09:05:51;;;;;;;39.45;36.30;;;31.60;99.90;;;;;;4828823;29;20026;-91
2023/09/12 09:08:20;;;;;;;38.13;35.33;;;32.00;99.90;;;;;;4844361;29;20057;-91
2023/09/12 09:11:08;;;;;;;38.35;35.72;;;31.70;99.90;;;;;;4830784;29;20026;-92
2023/09/12 09:13:35;;;;;;;38.70;35.72;;;31.60;99.90;;;;;;4845714;29;20049;-93
2023/09/12 09:16:22;;;;;;;38.08;35.28;;;31.70;99.90;;;;;;4811818;29;20034;-93
2023/09/12 09:19:00;;;;;;;38.78;36.05;;;32.00;99.90;;;;;;4826203;29;20096;-91
2023/09/12 09:21:31;;;;;;;39.25;36.33;;;32.00;99.90;;;;;;4822936;29;20033;-94
2023/09/12 09:24:23;;;;;;;39.72;36.63;;;31.70;99.90;;;;;;4828854;29;20038;-93
2023/09/12 09:26:58;;;;;;;39.28;36.15;;;31.70;99.90;;;;;;4826337;29;20518;-94
2023/09/12 09:29:26;;;;;;;39.13;36.17;;;31.90;99.90;;;;;;4843607;29;20174;-93
2023/09/12 09:31:53;;;;;;;38.28;35.67;;;32.00;99.90;;;;;;4828336;29;20065;-95
2023/09/12 09:34:21;;;;;;;38.53;35.65;;;32.10;99.90;;;;;;4843622;29;20064;-93
2023/09/12 09:36:51;;;;;;;38.05;35.42;;;32.20;99.90;;;;;;4828266;29;20033;-93
2023/09/12 09:39:20;;;;;;;37.80;35.05;;;32.30;99.90;;;;;;4843720;29;20030;-93
2023/09/12 09:41:55;;;;;;;39.15;36.10;;;32.50;99.90;;;;;;4828755;29;20491;-93
2023/09/12 09:44:28;;;;;;;38.88;35.88;;;32.60;99.90;;;;;;4810858;29;20063;-92
2023/09/12 09:47:02;;;;;;;38.47;35.88;;;32.60;99.90;;;;;;4826146;29;20567;-92
2023/09/12 09:49:40;;;;;;;38.70;35.75;;;32.10;99.90;;;;;;4810100;29;20050;-93
2023/09/12 09:52:06;;;;;;;38.40;35.60;;;31.90;99.90;;;;;;4826869;29;20034;-92
2023/09/12 09:54:33;;;;;;;39.83;36.60;;;32.10;99.90;;;;;;4829987;29;20030;-95
2023/09/12 09:57:00;;;;;;;38.53;35.70;;;32.00;99.90;;;;;;4828620;29;20049;-93
2023/09/12 09:59:27;;;;;;;38.42;35.72;;;32.00;99.90;;;;;;4828749;29;20036;-92
2023/09/12 10:01:59;;;;;;;39.42;36.22;;;32.20;99.90;;;;;;4828533;29;20034;-93
2023/09/12 10:04:32;;;;;;;39.50;36.20;;;32.50;99.90;;;;;;4849307;29;20042;-93
2023/09/12 10:06:58;;;;;;;38.50;35.80;;;32.70;99.90;;;;;;4827889;29;20042;-94
2023/09/12 10:09:30;;;;;;;39.90;36.83;;;33.00;99.90;;;;;;4810691;29;20030;-92
2023/09/12 10:11:59;;;;;;;39.45;36.47;;;33.10;99.90;;;;;;4811207;29;20062;-94
2023/09/12 10:14:28;;;;;;;38.00;35.58;;;32.70;99.90;;;;;;4811891;29;20030;-95
2023/09/12 10:17:00;;;;;;;38.97;36.25;;;32.20;99.90;;;;;;4811764;29;20130;-93
2023/09/12 10:23:22;;;;;;;39.45;36.75;;;32.00;99.90;;;;;;4829725;29;20073;-92
2023/09/12 10:25:50;;;;;;;39.00;36.00;;;32.20;99.90;;;;;;4797021;29;20050;-92
2023/09/12 10:28:17;;;;;;;38.60;35.95;;;32.70;99.90;;;;;;4790173;30;20039;-96
2023/09/12 10:30:46;;;;;;;38.35;35.90;;;32.70;99.90;;;;;;4790036;30;20031;-95
2023/09/12 10:33:13;;;;;;;39.05;36.17;;;32.70;99.90;;;;;;4801114;29;20071;-94
2023/09/12 10:35:40;;;;;;;38.40;35.65;;;32.80;99.90;;;;;;4787389;29;20035;-94
2023/09/12 10:38:08;;;;;;;39.63;36.92;;;32.60;99.90;;;;;;4787435;30;20027;-92
2023/09/12 10:40:39;;;;;;;39.28;36.65;;;32.60;99.90;;;;;;4701754;30;20050;-91
2023/09/12 10:43:06;;;;;;;39.35;36.22;;;32.90;99.90;;;;;;4710453;30;20031;-92
2023/09/12 10:45:33;;;;;;;38.25;35.65;;;32.90;99.90;;;;;;4714616;30;20039;-93
2023/09/12 10:47:59;;;;;;;38.00;35.05;;;33.00;99.90;;;;;;4772215;30;20516;-92
2023/09/12 10:50:49;;;;;;;38.10;35.30;;;33.20;99.90;;;;;;4773280;30;20051;-92
2023/09/12 10:53:17;;;;;;;38.20;35.53;;;33.20;99.90;;;;;;4774457;30;20044;-92
2023/09/12 10:56:00;;;;;;;38.08;35.40;;;33.10;99.90;;;;;;4780636;30;20039;-93
2023/09/12 10:58:28;;;;;;;37.22;34.75;;;33.30;99.90;;;;;;4773516;30;20042;-92
2023/09/12 11:01:24;;;;;;;38.08;35.45;;;33.00;99.90;;;;;;4795126;29;20034;-92
2023/09/12 11:03:55;;;;;;;37.30;34.88;;;32.80;99.90;;;;;;4811066;29;20120;-92
2023/09/12 11:06:31;;;;;;;38.42;35.70;;;32.80;99.90;;;;;;4821092;29;20035;-90
2023/09/12 11:09:14;;;;;;;37.95;35.22;;;33.00;99.90;;;;;;4830045;29;20034;-90
2023/09/12 11:11:46;;;;;;;37.65;35.15;;;33.00;99.90;;;;;;4827954;29;20043;-92
2023/09/12 11:14:15;;;;;;;39.30;36.28;;;32.20;99.90;;;;;;4827673;29;20042;-93
2023/09/12 11:16:43;;;;;;;40.33;36.63;;;31.80;99.90;;;;;;4828254;29;20060;-90
2023/09/12 11:19:15;;;;;;;37.33;34.92;;;32.00;99.90;;;;;;4821717;29;20035;-88
2023/09/12 11:21:44;;;;;;;37.70;34.83;;;32.10;99.90;;;;;;4809441;29;20425;-91
2023/09/12 11:24:11;;;;;;;38.13;35.72;;;32.20;99.90;;;;;;4809941;29;20058;-92
2023/09/12 11:26:57;;;;;;;38.03;35.22;;;32.40;99.90;;;;;;4795222;29;20046;-92
2023/09/12 11:29:35;;;;;;;38.05;35.15;;;32.40;99.90;;;;;;4794954;29;20030;-91
2023/09/12 11:32:06;;;;;;;38.08;35.03;;;32.30;99.90;;;;;;4825771;29;20042;-91
2023/09/12 11:34:48;;;;;;;37.97;35.38;;;32.20;99.90;;;;;;4813791;29;20489;-92
2023/09/12 11:37:24;;;;;;;37.35;34.85;;;32.20;99.90;;;;;;4798589;29;20489;-91
2023/09/12 11:39:53;;;;;;;37.33;34.78;;;32.40;99.90;;;;;;4796332;29;20043;-91
2023/09/12 11:42:22;;;;;;;37.80;35.10;;;32.70;99.90;;;;;;4797786;29;20406;-89
2023/09/12 11:44:50;;;;;;;36.38;33.33;;;32.50;99.90;;;;;;4817022;29;20031;-92
2023/09/12 11:47:16;;;;;;;31.30;29.00;;;32.20;99.90;;;;;;4800670;29;20039;-91
2023/09/12 11:49:46;;;;;;;31.48;29.17;;;31.90;99.90;;;;;;4798106;29;20083;-92
2023/09/12 11:52:16;;;;;;;31.45;28.92;;;31.80;99.90;;;;;;4809361;29;20129;-90
2023/09/12 11:54:44;;;;;;;31.20;28.95;;;31.50;99.90;;;;;;4795221;29;20030;-93
2023/09/12 11:57:14;;;;;;;29.33;27.10;;;31.40;99.90;;;;;;4797265;29;20054;-90
2023/09/12 11:59:48;;;;;;;29.08;26.75;;;31.10;99.90;;;;;;4812354;29;20031;-90
2023/09/12 12:02:15;;;;;;;29.83;27.30;;;31.10;99.90;;;;;;4796331;29;20035;-90
2023/09/12 12:04:41;;;;;;;29.90;27.35;;;31.10;99.90;;;;;;4810338;29;20038;-89
2023/09/12 12:07:11;;;;;;;29.70;27.17;;;31.00;99.90;;;;;;4812886;29;20103;-89
2023/09/12 12:09:38;;;;;;;29.20;27.00;;;31.00;99.90;;;;;;4812900;29;20401;-89
2023/09/12 12:12:14;;;;;;;29.80;27.40;;;30.90;99.90;;;;;;4812280;29;20412;-92
2023/09/12 12:14:50;;;;;;;29.15;26.90;;;30.70;99.90;;;;;;4814806;29;20045;-92
2023/09/12 12:17:20;;;;;;;29.08;26.75;;;30.70;99.90;;;;;;4812938;29;20035;-92
2023/09/12 12:19:47;;;;;;;29.60;27.40;;;30.70;99.90;;;;;;4810608;29;20039;-95
2023/09/12 12:22:14;;;;;;;30.27;27.55;;;30.90;99.90;;;;;;4799835;29;20085;-93
2023/09/12 12:24:51;;;;;;;31.20;28.70;;;30.90;99.90;;;;;;4812845;29;20153;-90
2023/09/12 12:27:28;;;;;;;30.15;27.90;;;31.00;99.90;;;;;;4799122;29;20067;-94
2023/09/12 12:29:55;;;;;;;29.20;27.10;;;31.20;99.90;;;;;;4798651;29;20040;-90
2023/09/12 12:32:22;;;;;;;29.85;27.13;;;30.80;99.90;;;;;;4796605;29;20035;-95
2023/09/12 12:34:49;;;;;;;29.33;27.05;;;30.90;99.90;;;;;;4797959;29;20095;-95
2023/09/12 12:37:30;;;;;;;30.42;27.90;;;31.10;99.90;;;;;;4805901;29;20042;-93
2023/09/12 12:40:05;;;;;;;30.10;27.58;;;30.90;99.90;;;;;;4828745;29;20019;-94
2023/09/12 13:22:57;;;;;;;30.98;28.55;;;30.90;99.90;;;;;;5003998;23;20144;-94
2023/09/12 13:25:23;;;;;;;31.80;29.02;;;30.70;99.90;;;;;;4893894;29;20037;-94
2023/09/12 13:28:29;;;;;;;31.42;29.02;;;30.60;99.90;;;;;;4873829;24;20053;-93
2023/09/12 13:31:20;;;;;;;32.10;29.55;;;30.60;99.90;;;;;;4916129;23;20041;-95
2023/09/12 13:33:50;;;;;;;31.88;29.48;;;30.70;99.90;;;;;;4854614;29;20037;-93
2023/09/12 13:36:16;;;;;;;31.25;28.92;;;30.70;99.90;;;;;;4850567;29;20042;-93
2023/09/12 13:38:58;;;;;;;30.90;28.65;;;30.70;99.90;;;;;;4850413;29;20041;-96
2023/09/12 13:42:32;;;;;;;31.27;29.05;;;30.50;99.90;;;;;;4864714;29;20033;-95
2023/09/12 13:50:35;;;;;;;32.42;30.00;;;30.70;99.90;;;;;;4895921;29;20056;-93
2023/09/12 13:53:08;;;;;;;32.67;30.17;;;30.40;99.90;;;;;;4881738;29;20048;-94
2023/09/12 13:55:41;;;;;;;32.97;30.42;;;30.50;99.90;;;;;;4882279;29;20035;-93
2023/09/12 13:58:10;;;;;;;33.58;30.92;;;30.70;99.90;;;;;;4866326;29;20043;-94
2023/09/12 14:00:36;;;;;;;33.30;30.70;;;30.90;99.90;;;;;;4851601;29;20470;-94
2023/09/12 14:03:04;;;;;;;34.58;31.85;;;30.70;99.90;;;;;;4881116;29;20525;-93
